createdAt,value
2018-05-07T00:00:39.842Z,82.83
2018-05-07T00:01:39.825Z,82.73
2018-05-07T00:02:39.811Z,83.40
2018-05-07T00:03:39.794Z,83.31
2018-05-07T00:04:39.778Z,83.59
2018-05-07T00:05:39.761Z,82.83
2018-05-07T00:06:39.745Z,83.69
2018-05-07T00:07:39.732Z,83.40
2018-05-07T00:08:39.724Z,83.59
2018-05-07T00:09:39.727Z,83.69
2018-05-07T00:10:39.683Z,83.59
2018-05-07T00:11:39.675Z,83.59
2018-05-07T00:12:39.647Z,82.83
2018-05-07T00:13:39.633Z,83.97
2018-05-07T00:14:39.613Z,83.50
2018-05-07T00:15:39.596Z,83.31
2018-05-07T00:16:39.582Z,83.31
2018-05-07T00:17:39.563Z,83.59
2018-05-07T00:18:39.554Z,83.12
2018-05-07T00:19:39.539Z,83.31
2018-05-07T00:20:39.599Z,83.69
2018-05-07T00:21:39.498Z,83.59
2018-05-07T00:22:39.483Z,83.40
2018-05-07T00:23:39.469Z,83.21
2018-05-07T00:24:39.449Z,83.78
2018-05-07T00:25:39.436Z,84.36
2018-05-07T00:26:39.495Z,84.36
2018-05-07T00:27:39.405Z,83.36
2018-05-07T00:28:39.391Z,82.64
2018-05-07T00:29:39.367Z,82.79
2018-05-07T00:30:39.350Z,82.12
2018-05-07T00:31:39.334Z,82.92
2018-05-07T00:32:39.318Z,83.17
2018-05-07T00:33:39.302Z,83.26
2018-05-07T00:34:39.285Z,83.26
2018-05-07T00:35:39.268Z,82.69
2018-05-07T00:36:39.256Z,83.74
2018-05-07T00:37:39.238Z,83.45
2018-05-07T00:38:39.218Z,83.55
2018-05-07T00:39:39.202Z,83.55
2018-05-07T00:40:39.184Z,83.26
2018-05-07T00:41:39.167Z,84.31
2018-05-07T00:42:39.153Z,84.31
2018-05-07T00:43:39.133Z,84.22
2018-05-07T00:44:39.118Z,83.84
2018-05-07T00:45:39.103Z,83.93
2018-05-07T00:46:39.085Z,83.45
2018-05-07T00:47:39.068Z,83.07
2018-05-07T00:48:39.050Z,83.55
2018-05-07T00:49:39.035Z,83.55
2018-05-07T00:50:39.018Z,83.45
2018-05-07T00:51:39.003Z,83.07
2018-05-07T00:52:38.983Z,83.55
2018-05-07T00:53:38.969Z,83.65
2018-05-07T00:54:38.951Z,83.84
2018-05-07T00:55:38.931Z,84.50
2018-05-07T00:56:38.917Z,84.41
2018-05-07T00:57:38.900Z,84.22
2018-05-07T00:58:38.882Z,84.03
2018-05-07T00:59:38.868Z,84.22
2018-05-07T01:00:38.855Z,83.84
2018-05-07T01:01:38.832Z,83.93
2018-05-07T01:02:38.820Z,84.36
2018-05-07T01:03:38.799Z,83.98
2018-05-07T01:04:38.783Z,84.50
2018-05-07T01:05:38.768Z,83.03
2018-05-07T01:06:38.751Z,83.41
2018-05-07T01:07:38.736Z,84.08
2018-05-07T01:08:38.713Z,83.89
2018-05-07T01:09:38.698Z,84.27
2018-05-07T01:10:38.681Z,83.98
2018-05-07T01:11:38.661Z,83.61
2018-05-07T01:12:38.647Z,83.98
2018-05-07T01:13:38.638Z,84.27
2018-05-07T01:14:38.612Z,84.36
2018-05-07T01:15:38.594Z,83.70
2018-05-07T01:16:38.582Z,83.70
2018-05-07T01:17:38.560Z,83.80
2018-05-07T01:18:38.547Z,84.65
2018-05-07T01:19:38.528Z,84.46
2018-05-07T01:20:38.510Z,84.46
2018-05-07T01:21:38.500Z,84.46
2018-05-07T01:22:38.477Z,84.56
2018-05-07T01:23:38.509Z,84.56
2018-05-07T01:24:38.445Z,84.75
2018-05-07T01:25:38.425Z,84.46
2018-05-07T01:26:38.408Z,84.84
2018-05-07T01:27:38.390Z,85.41
2018-05-07T01:28:38.373Z,85.03
2018-05-07T01:29:38.356Z,84.65
2018-05-07T01:30:38.340Z,84.56
2018-05-07T01:31:38.323Z,84.84
2018-05-07T01:32:38.310Z,84.84
2018-05-07T01:33:38.288Z,84.65
2018-05-07T01:34:38.270Z,85.22
2018-05-07T01:35:38.252Z,85.41
2018-05-07T01:36:38.234Z,85.85
2018-05-07T01:37:38.219Z,85.75
2018-05-07T01:38:38.200Z,86.04
2018-05-07T01:39:38.185Z,86.13
2018-05-07T01:40:38.171Z,86.42
2018-05-07T01:41:38.150Z,86.22
2018-05-07T01:42:38.132Z,85.94
2018-05-07T01:43:38.116Z,86.22
2018-05-07T01:44:38.097Z,86.90
2018-05-07T01:45:38.081Z,87.08
2018-05-07T01:46:38.065Z,88.04
2018-05-07T01:47:38.048Z,88.42
2018-05-07T01:48:38.030Z,88.51
2018-05-07T01:49:38.011Z,89.08
2018-05-07T01:50:37.995Z,88.79
2018-05-07T01:51:37.979Z,88.32
2018-05-07T01:52:37.959Z,87.75
2018-05-07T01:53:37.941Z,87.75
2018-05-07T01:54:37.963Z,87.27
2018-05-07T01:55:37.905Z,87.56
2018-05-07T01:56:37.890Z,87.37
2018-05-07T01:57:37.872Z,87.27
2018-05-07T01:58:37.854Z,87.37
2018-05-07T01:59:37.835Z,87.37
2018-05-07T02:00:37.885Z,87.18
2018-05-07T02:01:37.803Z,87.56
2018-05-07T02:02:37.785Z,87.85
2018-05-07T02:03:37.772Z,87.37
2018-05-07T02:04:37.747Z,87.85
2018-05-07T02:05:37.733Z,86.90
2018-05-07T02:06:37.712Z,86.99
2018-05-07T02:07:37.693Z,87.37
2018-05-07T02:08:37.680Z,87.27
2018-05-07T02:09:37.663Z,86.80
2018-05-07T02:10:37.645Z,86.70
2018-05-07T02:11:37.624Z,86.80
2018-05-07T02:12:37.607Z,87.08
2018-05-07T02:13:37.587Z,87.37
2018-05-07T02:14:37.571Z,87.27
2018-05-07T02:15:37.553Z,86.99
2018-05-07T02:16:37.534Z,87.18
2018-05-07T02:17:37.516Z,87.46
2018-05-07T02:18:37.499Z,87.94
2018-05-07T02:19:37.491Z,87.56
2018-05-07T02:20:37.464Z,88.04
2018-05-07T02:21:37.450Z,88.51
2018-05-07T02:22:37.430Z,88.04
2018-05-07T02:23:37.415Z,88.23
2018-05-07T02:24:37.395Z,87.85
2018-05-07T02:25:37.376Z,88.85
2018-05-07T02:26:37.357Z,89.32
2018-05-07T02:27:37.350Z,88.85
2018-05-07T02:28:37.322Z,89.18
2018-05-07T02:29:37.308Z,89.37
2018-05-07T02:30:37.286Z,89.42
2018-05-07T02:31:37.275Z,89.32
2018-05-07T02:32:37.251Z,89.70
2018-05-07T02:33:37.233Z,89.37
2018-05-07T02:34:37.219Z,89.14
2018-05-07T02:35:37.196Z,89.42
2018-05-07T02:36:37.182Z,89.61
2018-05-07T02:37:37.161Z,89.42
2018-05-07T02:38:37.146Z,88.94
2018-05-07T02:39:37.125Z,88.75
2018-05-07T02:40:37.108Z,88.46
2018-05-07T02:41:37.103Z,88.85
2018-05-07T02:42:37.074Z,88.85
2018-05-07T02:43:37.058Z,88.94
2018-05-07T02:44:37.038Z,88.85
2018-05-07T02:45:37.019Z,89.23
2018-05-07T02:46:37.002Z,89.89
2018-05-07T02:47:36.980Z,89.61
2018-05-07T02:48:36.964Z,89.51
2018-05-07T02:49:36.952Z,89.04
2018-05-07T02:50:36.935Z,88.85
2018-05-07T02:51:36.968Z,89.32
2018-05-07T02:52:36.891Z,89.61
2018-05-07T02:53:36.874Z,90.18
2018-05-07T02:54:36.859Z,89.61
2018-05-07T02:55:36.841Z,89.42
2018-05-07T02:56:36.819Z,89.89
2018-05-07T02:57:36.806Z,89.42
2018-05-07T02:58:36.784Z,89.23
2018-05-07T02:59:36.765Z,89.23
2018-05-07T03:00:36.747Z,89.70
2018-05-07T03:01:36.730Z,89.89
2018-05-07T03:02:36.714Z,89.61
2018-05-07T03:03:36.693Z,89.89
2018-05-07T03:04:36.675Z,89.23
2018-05-07T03:05:36.657Z,89.42
2018-05-07T03:06:36.640Z,89.42
2018-05-07T03:07:36.623Z,89.32
2018-05-07T03:08:36.601Z,89.42
2018-05-07T03:09:36.589Z,89.70
2018-05-07T03:10:36.573Z,89.32
2018-05-07T03:11:36.547Z,89.61
2018-05-07T03:12:36.529Z,89.42
2018-05-07T03:13:36.513Z,88.94
2018-05-07T03:14:36.498Z,89.04
2018-05-07T03:15:36.479Z,89.42
2018-05-07T03:16:36.456Z,89.32
2018-05-07T03:17:36.457Z,89.32
2018-05-07T03:18:36.420Z,89.32
2018-05-07T03:19:36.403Z,89.23
2018-05-07T03:20:36.385Z,89.04
2018-05-07T03:21:36.369Z,89.51
2018-05-07T03:22:36.349Z,89.51
2018-05-07T03:23:36.330Z,89.61
2018-05-07T03:24:36.315Z,89.51
2018-05-07T03:25:36.296Z,89.51
2018-05-07T03:26:36.276Z,89.32
2018-05-07T03:27:36.256Z,88.85
2018-05-07T03:28:36.239Z,89.42
2018-05-07T03:29:36.219Z,88.94
2018-05-07T03:30:36.203Z,89.80
2018-05-07T03:31:36.187Z,89.70
2018-05-07T03:32:36.167Z,89.80
2018-05-07T03:33:36.149Z,89.89
2018-05-07T03:34:36.131Z,89.80
2018-05-07T03:35:36.113Z,89.80
2018-05-07T03:36:36.094Z,89.80
2018-05-07T03:37:36.076Z,89.42
2018-05-07T03:38:36.061Z,90.28
2018-05-07T03:39:36.040Z,90.18
2018-05-07T03:40:36.039Z,90.08
2018-05-07T03:41:36.002Z,90.08
2018-05-07T03:42:35.985Z,89.89
2018-05-07T03:43:35.966Z,89.99
2018-05-07T03:44:35.951Z,89.42
2018-05-07T03:45:35.931Z,89.32
2018-05-07T03:46:35.910Z,89.61
2018-05-07T03:47:35.891Z,89.70
2018-05-07T03:48:35.875Z,90.18
2018-05-07T03:49:35.856Z,89.80
2018-05-07T03:50:35.839Z,90.18
2018-05-07T03:51:35.826Z,89.42
2018-05-07T03:52:35.803Z,89.80
2018-05-07T03:53:35.787Z,88.56
2018-05-07T03:54:35.778Z,89.14
2018-05-07T03:55:35.757Z,89.23
2018-05-07T03:56:35.730Z,89.42
2018-05-07T03:57:35.711Z,89.42
2018-05-07T03:58:35.702Z,89.51
2018-05-07T03:59:35.754Z,90.08
2018-05-07T04:00:35.658Z,89.42
2018-05-07T04:01:35.639Z,89.80
2018-05-07T04:02:35.620Z,89.32
2018-05-07T04:03:35.601Z,89.51
2018-05-07T04:04:35.585Z,89.80
2018-05-07T04:05:35.565Z,89.89
2018-05-07T04:06:35.548Z,90.08
2018-05-07T04:07:35.530Z,89.99
2018-05-07T04:08:35.510Z,90.18
2018-05-07T04:09:35.492Z,89.99
2018-05-07T04:10:35.474Z,90.47
2018-05-07T04:11:35.455Z,90.08
2018-05-07T04:12:35.442Z,90.56
2018-05-07T04:13:35.419Z,90.28
2018-05-07T04:14:35.405Z,90.66
2018-05-07T04:15:35.383Z,90.56
2018-05-07T04:16:35.365Z,90.47
2018-05-07T04:17:35.345Z,90.37
2018-05-07T04:18:35.327Z,91.03
2018-05-07T04:19:35.305Z,91.99
2018-05-07T04:20:35.296Z,91.42
2018-05-07T04:21:35.274Z,91.32
2018-05-07T04:22:35.253Z,91.22
2018-05-07T04:23:35.312Z,92.27
2018-05-07T04:24:35.222Z,92.36
2018-05-07T04:25:35.200Z,92.18
2018-05-07T04:26:35.188Z,91.70
2018-05-07T04:27:35.160Z,91.99
2018-05-07T04:28:35.145Z,92.08
2018-05-07T04:29:35.126Z,91.70
2018-05-07T04:30:35.107Z,91.51
2018-05-07T04:31:35.089Z,91.99
2018-05-07T04:32:35.080Z,92.56
2018-05-07T04:33:35.054Z,92.60
2018-05-07T04:34:35.036Z,92.70
2018-05-07T04:35:35.021Z,92.99
2018-05-07T04:36:34.998Z,93.46
2018-05-07T04:37:34.979Z,94.22
2018-05-07T04:38:34.963Z,94.13
2018-05-07T04:39:34.947Z,94.70
2018-05-07T04:40:34.924Z,94.89
2018-05-07T04:41:34.908Z,94.51
2018-05-07T04:42:34.890Z,94.51
2018-05-07T04:43:34.872Z,94.60
2018-05-07T04:44:34.851Z,95.17
2018-05-07T04:45:34.836Z,94.89
2018-05-07T04:46:34.821Z,94.32
2018-05-07T04:47:34.798Z,94.32
2018-05-07T04:48:34.780Z,93.84
2018-05-07T04:49:34.761Z,93.55
2018-05-07T04:50:34.746Z,94.56
2018-05-07T04:51:34.729Z,94.46
2018-05-07T04:52:34.710Z,95.41
2018-05-07T04:53:34.690Z,95.51
2018-05-07T04:54:34.674Z,94.84
2018-05-07T04:55:34.653Z,95.03
2018-05-07T04:56:34.635Z,94.74
2018-05-07T04:57:34.618Z,95.41
2018-05-07T04:58:34.602Z,95.32
2018-05-07T04:59:34.583Z,95.41
2018-05-07T05:00:34.565Z,95.89
2018-05-07T05:01:34.545Z,96.17
2018-05-07T05:02:34.528Z,95.89
2018-05-07T05:03:34.509Z,95.32
2018-05-07T05:04:34.495Z,95.12
2018-05-07T05:05:34.477Z,96.65
2018-05-07T05:06:34.457Z,97.17
2018-05-07T05:07:34.439Z,96.70
2018-05-07T05:08:34.425Z,97.27
2018-05-07T05:09:34.404Z,96.70
2018-05-07T05:10:34.385Z,97.75
2018-05-07T05:11:34.369Z,98.03
2018-05-07T05:12:34.355Z,98.13
2018-05-07T05:13:34.334Z,97.65
2018-05-07T05:14:34.315Z,98.03
2018-05-07T05:15:34.296Z,98.03
2018-05-07T05:16:34.278Z,97.94
2018-05-07T05:17:34.263Z,97.03
2018-05-07T05:18:34.245Z,97.03
2018-05-07T05:19:34.225Z,96.84
2018-05-07T05:20:34.211Z,96.56
2018-05-07T05:21:34.194Z,96.65
2018-05-07T05:22:34.174Z,96.46
2018-05-07T05:23:34.157Z,96.17
2018-05-07T05:24:34.139Z,95.98
2018-05-07T05:25:34.129Z,96.03
2018-05-07T05:26:34.105Z,95.46
2018-05-07T05:27:34.089Z,95.37
2018-05-07T05:28:34.069Z,95.46
2018-05-07T05:29:34.051Z,94.70
2018-05-07T05:30:34.044Z,94.98
2018-05-07T05:31:34.017Z,94.79
2018-05-07T05:32:34.000Z,94.03
2018-05-07T05:33:33.982Z,94.98
2018-05-07T05:34:33.969Z,94.03
2018-05-07T05:35:33.950Z,93.93
2018-05-07T05:36:33.930Z,93.65
2018-05-07T05:37:33.914Z,94.17
2018-05-07T05:38:33.899Z,93.79
2018-05-07T05:39:33.880Z,93.60
2018-05-07T05:40:33.867Z,93.22
2018-05-07T05:41:33.846Z,93.22
2018-05-07T05:42:33.829Z,92.55
2018-05-07T05:43:33.916Z,93.79
2018-05-07T05:44:33.794Z,92.26
2018-05-07T05:45:33.780Z,92.74
2018-05-07T05:46:33.763Z,92.88
2018-05-07T05:47:33.744Z,92.07
2018-05-07T05:48:33.728Z,92.36
2018-05-07T05:49:33.709Z,92.83
2018-05-07T05:50:33.694Z,92.88
2018-05-07T05:51:33.680Z,92.79
2018-05-07T05:52:33.661Z,92.31
2018-05-07T05:53:33.648Z,91.93
2018-05-07T05:54:33.627Z,92.88
2018-05-07T05:55:33.617Z,92.12
2018-05-07T05:56:33.595Z,91.07
2018-05-07T05:57:33.578Z,91.40
2018-05-07T05:58:33.564Z,90.54
2018-05-07T05:59:33.545Z,90.54
2018-05-07T06:00:33.530Z,90.06
2018-05-07T06:01:33.514Z,89.49
2018-05-07T06:02:33.504Z,88.48
2018-05-07T06:03:33.485Z,88.39
2018-05-07T06:04:33.466Z,88.87
2018-05-07T06:05:33.450Z,87.34
2018-05-07T06:06:33.432Z,86.57
2018-05-07T06:07:33.415Z,85.81
2018-05-07T06:08:33.401Z,85.66
2018-05-07T06:09:33.388Z,85.38
2018-05-07T06:10:33.369Z,85.09
2018-05-07T06:11:33.353Z,84.13
2018-05-07T06:12:33.335Z,83.27
2018-05-07T06:13:33.323Z,83.17
2018-05-07T06:14:33.505Z,83.37
2018-05-07T06:15:33.288Z,82.41
2018-05-07T06:16:33.275Z,83.12
2018-05-07T06:17:33.261Z,82.35
2018-05-07T06:18:33.243Z,82.45
2018-05-07T06:19:33.227Z,81.49
2018-05-07T06:20:33.211Z,80.67
2018-05-07T06:21:33.195Z,80.58
2018-05-07T06:22:33.181Z,81.34
2018-05-07T06:23:33.167Z,80.87
2018-05-07T06:24:33.150Z,80.87
2018-05-07T06:25:33.142Z,80.48
2018-05-07T06:26:33.121Z,80.19
2018-05-07T06:27:33.103Z,80.10
2018-05-07T06:28:33.091Z,80.19
2018-05-07T06:29:33.075Z,80.52
2018-05-07T06:30:33.059Z,80.90
2018-05-07T06:31:33.043Z,80.24
2018-05-07T06:32:33.032Z,80.14
2018-05-07T06:33:33.023Z,79.85
2018-05-07T06:34:32.998Z,79.08
2018-05-07T06:35:32.988Z,78.42
2018-05-07T06:36:32.969Z,78.17
2018-05-07T06:37:32.955Z,76.64
2018-05-07T06:38:32.937Z,76.92
2018-05-07T06:39:32.925Z,76.35
2018-05-07T06:40:32.908Z,75.77
2018-05-07T06:41:32.895Z,74.72
2018-05-07T06:42:32.881Z,75.04
2018-05-07T06:43:32.870Z,74.95
2018-05-07T06:44:32.856Z,75.43
2018-05-07T06:45:32.881Z,73.90
2018-05-07T06:46:32.823Z,73.13
2018-05-07T06:47:32.811Z,71.72
2018-05-07T06:48:32.793Z,70.57
2018-05-07T06:49:32.779Z,69.33
2018-05-07T06:50:32.767Z,68.69
2018-05-07T06:51:32.753Z,68.30
2018-05-07T06:52:32.738Z,68.59
2018-05-07T06:53:32.728Z,68.12
2018-05-07T06:54:32.711Z,66.49
2018-05-07T06:55:32.697Z,65.46
2018-05-07T06:56:32.683Z,65.36
2018-05-07T06:57:32.669Z,64.40
2018-05-07T06:58:32.655Z,63.16
2018-05-07T06:59:32.642Z,62.68
2018-05-07T07:00:32.630Z,63.45
2018-05-07T07:01:32.616Z,63.67
2018-05-07T07:02:32.841Z,63.67
2018-05-07T07:03:32.588Z,62.23
2018-05-07T07:04:32.576Z,62.52
2018-05-07T07:05:32.565Z,63.48
2018-05-07T07:06:32.550Z,63.70
2018-05-07T07:07:32.610Z,64.66
2018-05-07T07:08:32.665Z,63.70
2018-05-07T07:09:32.514Z,61.68
2018-05-07T07:10:32.496Z,60.82
2018-05-07T07:11:32.483Z,61.23
2018-05-07T07:12:32.471Z,61.52
2018-05-07T07:13:32.459Z,60.56
2018-05-07T07:14:32.445Z,60.94
2018-05-07T07:15:32.432Z,61.23
2018-05-07T07:16:32.424Z,60.78
2018-05-07T07:17:32.410Z,58.86
2018-05-07T07:18:32.397Z,58.18
2018-05-07T07:19:32.381Z,57.64
2018-05-07T07:20:32.374Z,56.67
2018-05-07T07:21:32.356Z,55.65
2018-05-07T07:22:32.344Z,55.67
2018-05-07T07:23:32.335Z,51.84
2018-05-07T07:24:32.323Z,51.68
2018-05-07T07:25:32.311Z,51.41
2018-05-07T07:26:32.309Z,48.83
2018-05-07T07:27:32.288Z,48.37
2018-05-07T07:28:32.280Z,48.39
2018-05-07T07:29:32.261Z,46.58
2018-05-07T07:30:32.251Z,45.25
2018-05-07T07:31:32.248Z,44.50
2018-05-07T07:32:32.229Z,43.75
2018-05-07T07:33:32.220Z,41.91
2018-05-07T07:34:32.207Z,41.35
2018-05-07T07:35:32.196Z,40.31
2018-05-07T07:36:32.188Z,40.33
2018-05-07T07:37:32.185Z,40.33
2018-05-07T07:38:32.174Z,40.64
2018-05-07T07:39:32.258Z,39.37
2018-05-07T07:40:32.152Z,39.49
2018-05-07T07:41:32.144Z,37.35
2018-05-07T07:42:32.141Z,36.69
2018-05-07T07:43:32.128Z,36.68
2018-05-07T07:44:32.132Z,35.13
2018-05-07T07:45:32.115Z,36.40
2018-05-07T07:46:32.110Z,37.57
2018-05-07T07:47:32.104Z,35.63
2018-05-07T07:48:32.099Z,34.95
2018-05-07T07:49:32.092Z,35.94
2018-05-07T07:50:32.088Z,36.15
2018-05-07T07:51:32.089Z,34.90
2018-05-07T07:52:32.089Z,34.63
2018-05-07T07:53:32.125Z,34.63
2018-05-07T07:54:32.070Z,31.60
2018-05-07T07:55:32.067Z,32.86
2018-05-07T07:56:32.062Z,33.34
2018-05-07T07:57:32.062Z,34.20
2018-05-07T07:58:32.058Z,34.50
2018-05-07T07:59:32.058Z,34.09
2018-05-07T08:00:32.051Z,34.48
2018-05-07T08:01:32.050Z,34.50
2018-05-07T08:02:32.048Z,34.88
2018-05-07T08:03:32.045Z,34.52
2018-05-07T08:04:32.043Z,33.54
2018-05-07T08:05:32.041Z,34.12
2018-05-07T08:06:32.040Z,35.68
2018-05-07T08:07:32.038Z,33.25
2018-05-07T08:08:32.037Z,32.47
2018-05-07T08:09:32.035Z,33.06
2018-05-07T08:10:32.041Z,31.88
2018-05-07T08:11:32.035Z,32.86
2018-05-07T08:12:32.032Z,31.97
2018-05-07T08:13:32.032Z,34.11
2018-05-07T08:14:32.032Z,32.76
2018-05-07T08:15:32.029Z,31.70
2018-05-07T08:16:32.028Z,31.79
2018-05-07T08:17:32.032Z,31.51
2018-05-07T08:18:32.036Z,33.65
2018-05-07T08:19:32.030Z,32.10
2018-05-07T08:20:32.029Z,30.93
2018-05-07T08:21:32.028Z,30.83
2018-05-07T08:22:32.028Z,30.74
2018-05-07T08:23:32.025Z,31.32
2018-05-07T08:24:32.026Z,31.53
2018-05-07T08:25:32.027Z,31.93
2018-05-07T08:26:32.026Z,30.29
2018-05-07T08:27:32.027Z,30.51
2018-05-07T08:28:32.027Z,29.54
2018-05-07T08:29:32.028Z,27.61
2018-05-07T08:30:32.049Z,27.80
2018-05-07T08:31:32.055Z,27.61
2018-05-07T08:32:32.028Z,26.82
2018-05-07T08:33:32.031Z,27.52
2018-05-07T08:34:32.033Z,27.45
2018-05-07T08:35:32.031Z,25.79
2018-05-07T08:36:32.087Z,25.88
2018-05-07T08:37:32.035Z,26.15
2018-05-07T08:38:32.030Z,26.84
2018-05-07T08:39:32.030Z,26.43
2018-05-07T08:40:32.030Z,27.31
2018-05-07T08:41:32.038Z,26.89
2018-05-07T08:42:32.032Z,28.43
2018-05-07T08:43:32.036Z,29.22
2018-05-07T08:44:32.030Z,30.39
2018-05-07T08:45:32.034Z,29.61
2018-05-07T08:46:32.035Z,28.75
2018-05-07T08:47:32.036Z,27.97
2018-05-07T08:48:32.035Z,27.79
2018-05-07T08:49:32.030Z,28.18
2018-05-07T08:50:32.029Z,28.78
2018-05-07T08:51:32.037Z,27.59
2018-05-07T08:52:32.032Z,27.89
2018-05-07T08:53:32.037Z,28.18
2018-05-07T08:54:32.038Z,28.57
2018-05-07T08:55:32.027Z,28.38
2018-05-07T08:56:32.026Z,28.68
2018-05-07T08:57:32.090Z,28.19
2018-05-07T08:58:32.024Z,27.50
2018-05-07T08:59:32.021Z,27.89
2018-05-07T09:00:32.024Z,28.47
2018-05-07T09:01:32.020Z,27.97
2018-05-07T09:02:32.021Z,28.47
2018-05-07T09:03:32.021Z,28.77
2018-05-07T09:04:32.017Z,28.77
2018-05-07T09:05:32.017Z,28.58
2018-05-07T09:06:32.017Z,28.58
2018-05-07T09:07:32.050Z,28.29
2018-05-07T09:08:32.011Z,27.80
2018-05-07T09:09:32.013Z,27.51
2018-05-07T09:10:32.010Z,26.52
2018-05-07T09:11:32.008Z,29.54
2018-05-07T09:12:32.010Z,28.86
2018-05-07T09:13:32.037Z,28.67
2018-05-07T09:14:32.005Z,28.67
2018-05-07T09:15:32.004Z,30.52
2018-05-07T09:16:32.002Z,29.85
2018-05-07T09:17:32.002Z,29.08
2018-05-07T09:18:32.000Z,26.63
2018-05-07T09:19:31.999Z,26.92
2018-05-07T09:20:31.999Z,28.49
2018-05-07T09:21:32.000Z,29.07
2018-05-07T09:22:31.996Z,28.49
2018-05-07T09:23:31.998Z,29.17
2018-05-07T09:24:31.993Z,29.75
2018-05-07T09:25:31.997Z,27.80
2018-05-07T09:26:31.991Z,28.30
2018-05-07T09:27:31.990Z,27.81
2018-05-07T09:28:31.990Z,28.01
2018-05-07T09:29:31.986Z,27.81
2018-05-07T09:30:31.989Z,26.45
2018-05-07T09:31:32.061Z,27.23
2018-05-07T09:32:31.985Z,27.62
2018-05-07T09:33:31.983Z,27.70
2018-05-07T09:34:31.983Z,28.40
2018-05-07T09:35:31.983Z,27.62
2018-05-07T09:36:31.980Z,27.33
2018-05-07T09:37:31.980Z,27.72
2018-05-07T09:38:31.979Z,27.83
2018-05-07T09:39:31.977Z,26.76
2018-05-07T09:40:31.975Z,27.65
2018-05-07T09:41:31.977Z,27.36
2018-05-07T09:42:31.974Z,27.08
2018-05-07T09:43:31.972Z,26.39
2018-05-07T09:44:31.972Z,25.61
2018-05-07T09:45:31.970Z,25.51
2018-05-07T09:46:31.971Z,26.68
2018-05-07T09:47:31.969Z,27.27
2018-05-07T09:48:31.969Z,25.32
2018-05-07T09:49:31.968Z,25.68
2018-05-07T09:50:31.983Z,26.27
2018-05-07T09:51:31.964Z,26.93
2018-05-07T09:52:31.963Z,27.52
2018-05-07T09:53:31.968Z,28.42
2018-05-07T09:54:31.964Z,28.82
2018-05-07T09:55:31.960Z,25.70
2018-05-07T09:56:31.960Z,26.97
2018-05-07T09:57:31.959Z,26.48
2018-05-07T09:58:31.957Z,26.87
2018-05-07T09:59:31.958Z,26.59
2018-05-07T10:00:31.959Z,26.89
2018-05-07T10:01:31.959Z,26.89
2018-05-07T10:02:32.027Z,26.40
2018-05-07T10:03:31.957Z,25.23
2018-05-07T10:04:31.954Z,24.33
2018-05-07T10:05:31.954Z,24.42
2018-05-07T10:06:31.955Z,25.79
2018-05-07T10:07:31.952Z,25.49
2018-05-07T10:08:31.952Z,25.20
2018-05-07T10:09:31.952Z,25.68
2018-05-07T10:10:31.958Z,25.98
2018-05-07T10:11:31.953Z,26.95
2018-05-07T10:12:31.952Z,27.26
2018-05-07T10:13:31.952Z,26.67
2018-05-07T10:14:31.954Z,25.70
2018-05-07T10:15:31.957Z,25.60
2018-05-07T10:16:31.953Z,25.71
2018-05-07T10:17:31.956Z,25.12
2018-05-07T10:18:31.957Z,25.71
2018-05-07T10:19:31.956Z,26.50
2018-05-07T10:20:31.959Z,25.04
2018-05-07T10:21:31.960Z,25.54
2018-05-07T10:22:31.963Z,25.34
2018-05-07T10:23:32.008Z,24.37
2018-05-07T10:24:31.966Z,25.07
2018-05-07T10:25:31.965Z,23.81
2018-05-07T10:26:31.968Z,24.21
2018-05-07T10:27:31.968Z,23.13
2018-05-07T10:28:32.026Z,23.03
2018-05-07T10:29:31.978Z,23.34
2018-05-07T10:30:31.984Z,22.64
2018-05-07T10:31:31.979Z,22.25
2018-05-07T10:32:31.981Z,22.64
2018-05-07T10:33:31.984Z,22.26
2018-05-07T10:34:31.986Z,21.58
2018-05-07T10:35:31.989Z,21.75
2018-05-07T10:36:31.990Z,22.52
2018-05-07T10:37:31.994Z,23.70
2018-05-07T10:38:31.995Z,23.32
2018-05-07T10:39:32.002Z,22.64
2018-05-07T10:40:32.003Z,22.92
2018-05-07T10:41:32.007Z,22.63
2018-05-07T10:42:32.010Z,23.32
2018-05-07T10:43:32.012Z,22.92
2018-05-07T10:44:32.017Z,22.64
2018-05-07T10:45:32.021Z,21.36
2018-05-07T10:46:32.025Z,22.33
2018-05-07T10:47:32.028Z,22.73
2018-05-07T10:48:32.032Z,22.14
2018-05-07T10:49:32.044Z,22.05
2018-05-07T10:50:32.039Z,21.94
2018-05-07T10:51:32.043Z,22.12
2018-05-07T10:52:32.047Z,22.61
2018-05-07T10:53:32.052Z,23.41
2018-05-07T10:54:32.056Z,23.32
2018-05-07T10:55:32.059Z,22.73
2018-05-07T10:56:32.063Z,22.16
2018-05-07T10:57:32.071Z,21.48
2018-05-07T10:58:32.074Z,21.48
2018-05-07T10:59:32.074Z,22.17
2018-05-07T11:00:32.084Z,21.30
2018-05-07T11:01:32.107Z,21.12
2018-05-07T11:02:32.090Z,20.93
2018-05-07T11:03:32.098Z,19.87
2018-05-07T11:04:32.097Z,19.27
2018-05-07T11:05:32.106Z,19.18
2018-05-07T11:06:32.108Z,19.56
2018-05-07T11:07:32.111Z,20.25
2018-05-07T11:08:32.117Z,19.96
2018-05-07T11:09:32.122Z,19.96
2018-05-07T11:10:32.127Z,19.37
2018-05-07T11:11:32.136Z,20.06
2018-05-07T11:12:32.138Z,19.75
2018-05-07T11:13:32.190Z,18.96
2018-05-07T11:14:32.148Z,20.14
2018-05-07T11:15:32.153Z,20.44
2018-05-07T11:16:32.159Z,20.45
2018-05-07T11:17:32.164Z,19.46
2018-05-07T11:18:32.176Z,20.06
2018-05-07T11:19:32.176Z,19.87
2018-05-07T11:20:32.189Z,19.77
2018-05-07T11:21:32.188Z,20.75
2018-05-07T11:22:32.193Z,21.15
2018-05-07T11:23:32.197Z,20.18
2018-05-07T11:24:32.204Z,20.28
2018-05-07T11:25:32.213Z,19.90
2018-05-07T11:26:32.216Z,19.10
2018-05-07T11:27:32.222Z,18.99
2018-05-07T11:28:32.228Z,19.98
2018-05-07T11:29:32.233Z,19.79
2018-05-07T11:30:32.240Z,20.79
2018-05-07T11:31:32.244Z,19.01
2018-05-07T11:32:32.251Z,19.69
2018-05-07T11:33:32.260Z,17.80
2018-05-07T11:34:32.264Z,19.27
2018-05-07T11:35:32.275Z,19.29
2018-05-07T11:36:32.281Z,18.71
2018-05-07T11:37:32.285Z,18.98
2018-05-07T11:38:32.289Z,19.48
2018-05-07T11:39:32.301Z,19.20
2018-05-07T11:40:32.304Z,19.59
2018-05-07T11:41:32.315Z,20.18
2018-05-07T11:42:32.318Z,19.69
2018-05-07T11:43:32.322Z,18.21
2018-05-07T11:44:32.329Z,18.02
2018-05-07T11:45:32.337Z,18.02
2018-05-07T11:46:32.344Z,18.32
2018-05-07T11:47:32.409Z,19.01
2018-05-07T11:48:32.363Z,20.30
2018-05-07T11:49:32.363Z,18.82
2018-05-07T11:50:32.371Z,18.83
2018-05-07T11:51:32.378Z,17.83
2018-05-07T11:52:32.384Z,19.12
2018-05-07T11:53:32.392Z,17.73
2018-05-07T11:54:32.400Z,19.02
2018-05-07T11:55:32.407Z,18.63
2018-05-07T11:56:32.413Z,18.83
2018-05-07T11:57:32.421Z,19.32
2018-05-07T11:58:32.427Z,18.05
2018-05-07T11:59:32.434Z,18.07
2018-05-07T12:00:32.442Z,16.28
2018-05-07T12:01:32.452Z,16.58
2018-05-07T12:02:32.641Z,17.08
2018-05-07T12:03:32.463Z,16.67
2018-05-07T12:04:32.470Z,17.94
2018-05-07T12:05:32.477Z,19.23
2018-05-07T12:06:32.487Z,17.35
2018-05-07T12:07:32.491Z,17.55
2018-05-07T12:08:32.504Z,18.05
2018-05-07T12:09:32.510Z,16.97
2018-05-07T12:10:32.516Z,17.07
2018-05-07T12:11:32.523Z,16.66
2018-05-07T12:12:32.530Z,17.74
2018-05-07T12:13:32.541Z,18.92
2018-05-07T12:14:32.545Z,19.13
2018-05-07T12:15:32.551Z,18.54
2018-05-07T12:16:32.560Z,18.44
2018-05-07T12:17:32.585Z,18.65
2018-05-07T12:18:32.584Z,16.57
2018-05-07T12:19:32.586Z,18.84
2018-05-07T12:20:32.590Z,18.15
2018-05-07T12:21:32.600Z,18.05
2018-05-07T12:22:32.605Z,18.06
2018-05-07T12:23:32.613Z,18.17
2018-05-07T12:24:32.623Z,17.08
2018-05-07T12:25:32.644Z,17.78
2018-05-07T12:26:32.646Z,16.97
2018-05-07T12:27:32.642Z,17.95
2018-05-07T12:28:32.652Z,19.63
2018-05-07T12:29:32.662Z,18.27
2018-05-07T12:30:32.670Z,17.87
2018-05-07T12:31:32.823Z,17.08
2018-05-07T12:32:32.683Z,16.36
2018-05-07T12:33:32.689Z,17.62
2018-05-07T12:34:32.698Z,17.91
2018-05-07T12:35:32.715Z,18.99
2018-05-07T12:36:32.713Z,19.89
2018-05-07T12:37:32.721Z,18.82
2018-05-07T12:38:32.729Z,19.61
2018-05-07T12:39:32.736Z,19.23
2018-05-07T12:40:32.742Z,17.36
2018-05-07T12:41:32.753Z,16.75
2018-05-07T12:42:32.758Z,17.24
2018-05-07T12:43:32.773Z,17.74
2018-05-07T12:44:32.774Z,17.94
2018-05-07T12:45:32.779Z,17.23
2018-05-07T12:46:32.788Z,17.60
2018-05-07T12:47:32.797Z,18.00
2018-05-07T12:48:32.800Z,18.27
2018-05-07T12:49:32.809Z,17.59
2018-05-07T12:50:32.815Z,17.98
2018-05-07T12:51:32.827Z,19.56
2018-05-07T12:52:32.828Z,18.98